Terminal Aerodrome Forecast
Issued by NWS

Home | Current Version | Previous Version | Text Only | Print | Product List | Glossary On
Versions: 1 2 3 4 5 6 7 8 9 10 11 12 13 14 15 16 17 18 19 20 21 22 23
000
FTUS41 KGYX 042320
TAFPSM
TAF
KPSM 042320Z 0500/0524 04010KT 4SM -RADZ BR OVC007
     FM050700 02011KT 4SM BR OVC007
     FM051200 03012KT 1 1/2SM BR OVC003
     FM051600 04011G20KT 2SM BR OVC012=

USA.gov is the U.S. government's official web portal to all federal, state and local government web resources and services.